Time;durP1;ratioP1;P1;durP2;ratioP2;P2;SDS_P1;SDS_P2;PMS_P1;PMS_P2;Temp;Humidity;BMP_temperature;BMP_pressure;BME280_temperature;BME280_humidity;BME280_pressure;Samples;Min_cycle;Max_cycle;Signal;HPM_P1;HPM_P2
2022/11/19 00:01:17;;;;;;;27.80;19.92;;;;;;;-1.67;70.52;96246.71;1697024;84;25810;-72
2022/11/19 00:03:44;;;;;;;34.48;22.27;;;;;;;-1.64;70.57;96254.33;1696859;84;27498;-71
2022/11/19 00:06:14;;;;;;;27.75;20.12;;;;;;;-1.65;70.67;96255.32;1696406;84;25885;-72
2022/11/19 00:08:41;;;;;;;31.12;20.45;;;;;;;-1.64;70.72;96251.69;1696784;84;25722;-72
2022/11/19 00:11:12;;;;;;;28.90;20.60;;;;;;;-1.63;70.80;96257.31;1688019;83;25986;-76
2022/11/19 00:13:40;;;;;;;22.77;16.25;;;;;;;-1.61;70.74;96264.59;1693267;84;25836;-73
2022/11/19 00:16:13;;;;;;;21.33;15.03;;;;;;;-1.74;70.00;96272.18;1693268;84;27515;-72
2022/11/19 00:18:40;;;;;;;22.10;15.63;;;;;;;-1.81;69.66;96274.14;1660942;86;25805;-72
2022/11/19 00:21:11;;;;;;;19.62;14.95;;;;;;;-1.85;69.76;96276.80;1661128;86;25814;-75
2022/11/19 00:23:39;;;;;;;19.23;15.13;;;;;;;-1.86;69.33;96281.75;1661235;86;26595;-75
2022/11/19 00:26:10;;;;;;;20.68;15.03;;;;;;;-1.98;68.75;96273.78;1661171;86;25520;-73
2022/11/19 00:28:37;;;;;;;30.43;20.37;;;;;;;-2.04;69.11;96266.48;1589676;90;28026;-75
2022/11/19 00:31:07;;;;;;;35.92;24.15;;;;;;;-2.00;69.61;96265.67;1589468;90;25826;-72
2022/11/19 00:33:35;;;;;;;30.88;20.52;;;;;;;-1.99;69.81;96250.97;1589648;90;25342;-71
2022/11/19 00:36:04;;;;;;;28.60;19.25;;;;;;;-1.94;70.08;96240.75;1589526;88;26177;-72
2022/11/19 00:38:32;;;;;;;23.95;17.95;;;;;;;-1.88;70.24;96238.76;1589416;90;25516;-71
2022/11/19 00:40:58;;;;;;;29.82;20.32;;;;;;;-1.82;70.11;96249.20;1589594;88;27381;-75
2022/11/19 00:46:10;;;;;;;19.10;14.65;;;;;;;-1.76;69.77;96264.90;1589516;90;25764;-75
2022/11/19 00:48:38;;;;;;;19.07;14.60;;;;;;;-1.75;69.08;96274.00;1593635;89;25837;-72
2022/11/19 00:51:07;;;;;;;21.70;16.73;;;;;;;-1.71;68.93;96273.19;1637993;87;25797;-74
2022/11/19 00:53:34;;;;;;;20.50;15.50;;;;;;;-1.68;69.12;96286.06;1620205;88;28257;-72
2022/11/19 00:56:08;;;;;;;23.70;17.27;;;;;;;-1.65;69.17;96297.66;1620233;88;25517;-72
2022/11/19 00:58:34;;;;;;;23.40;17.02;;;;;;;-1.70;68.91;96286.26;1606905;89;25772;-73
2022/11/19 01:01:01;;;;;;;19.35;14.73;;;;;;;-1.73;69.28;96289.72;1608479;89;25941;-72
2022/11/19 01:03:28;;;;;;;33.78;22.30;;;;;;;-1.75;69.40;96288.55;1609862;89;25316;-72
2022/11/19 01:05:55;;;;;;;25.12;18.85;;;;;;;-1.72;69.48;96280.79;1610010;89;27559;-71
2022/11/19 01:08:22;;;;;;;26.42;18.00;;;;;;;-1.71;69.62;96275.83;1615970;87;25863;-73
2022/11/19 01:10:49;;;;;;;26.37;18.80;;;;;;;-1.71;69.58;96275.34;1632677;87;25752;-71
2022/11/19 01:13:33;;;;;;;24.43;18.15;;;;;;;-1.69;69.57;96283.12;1632666;87;26043;-72
2022/11/19 01:16:06;;;;;;;23.85;18.42;;;;;;;-1.68;69.65;96293.52;1632702;87;25786;-74
2022/11/19 01:18:35;;;;;;;24.37;17.37;;;;;;;-1.66;69.73;96288.06;1622119;88;28382;-72
2022/11/19 01:21:02;;;;;;;25.37;17.52;;;;;;;-1.66;69.51;96274.83;1622095;88;25336;-72
2022/11/19 01:23:30;;;;;;;25.50;18.23;;;;;;;-1.64;69.61;96275.50;1622279;88;25307;-72
2022/11/19 01:25:56;;;;;;;27.95;18.23;;;;;;;-1.62;69.52;96273.03;1622341;88;26001;-72
2022/11/19 01:28:24;;;;;;;26.00;17.92;;;;;;;-1.59;69.53;96270.56;1622253;88;25576;-72
2022/11/19 01:30:51;;;;;;;27.40;18.98;;;;;;;-1.59;69.54;96272.70;1622781;87;27563;-72
2022/11/19 01:33:18;;;;;;;26.20;19.30;;;;;;;-1.59;69.57;96283.79;1633776;87;25992;-72
2022/11/19 01:35:57;;;;;;;33.02;23.65;;;;;;;-1.61;69.45;96292.38;1632188;87;26643;-76
2022/11/19 01:38:24;;;;;;;27.93;21.62;;;;;;;-1.60;69.69;96284.28;1631258;87;26613;-72
2022/11/19 01:40:51;;;;;;;28.55;20.90;;;;;;;-1.58;69.74;96266.92;1632139;87;25832;-71
2022/11/19 01:43:17;;;;;;;30.45;21.73;;;;;;;-1.59;69.71;96287.27;1632454;87;27405;-73
2022/11/19 01:45:49;;;;;;;35.83;25.10;;;;;;;-1.56;69.81;96296.67;1632335;87;25889;-72
2022/11/19 01:48:25;;;;;;;34.25;24.10;;;;;;;-1.53;69.81;96303.80;1632496;87;25838;-73
2022/11/19 01:51:14;;;;;;;33.25;23.35;;;;;;;-1.61;69.83;96301.64;1632345;87;26647;-74
2022/11/19 01:53:44;;;;;;;34.80;22.67;;;;;;;-1.55;69.80;96308.42;1632719;87;25816;-72
2022/11/19 01:56:11;;;;;;;35.00;24.07;;;;;;;-1.62;69.94;96296.02;1658231;86;27457;-72
2022/11/19 01:58:43;;;;;;;32.65;24.67;;;;;;;-1.64;70.15;96303.28;1663299;86;25784;-72
2022/11/19 02:01:10;;;;;;;30.77;23.47;;;;;;;-1.63;70.19;96312.87;1670040;85;25790;-73
2022/11/19 02:03:38;;;;;;;33.53;23.75;;;;;;;-1.61;70.33;96318.84;1674986;85;27055;-72
2022/11/19 02:06:07;;;;;;;33.42;22.32;;;;;;;-1.59;70.28;96323.48;1675319;85;25523;-72
2022/11/19 02:08:44;;;;;;;34.30;23.25;;;;;;;-1.59;70.29;96327.45;1675320;85;27367;-72
2022/11/19 02:11:34;;;;;;;34.38;23.52;;;;;;;-1.59;70.35;96331.42;1675215;85;26008;-73
2022/11/19 02:14:31;;;;;;;31.17;22.93;;;;;;;-1.60;70.49;96335.89;1675338;85;25736;-72
2022/11/19 02:17:19;;;;;;;35.88;25.52;;;;;;;-1.57;70.63;96349.30;1675264;85;26737;-72
2022/11/19 02:20:12;;;;;;;34.80;23.73;;;;;;;-1.53;70.73;96351.93;1675296;85;26571;-71
2022/11/19 02:23:27;;;;;;;37.88;26.17;;;;;;;-1.50;70.72;96352.94;1701371;84;28194;-72
2022/11/19 02:26:42;;;;;;;36.75;25.97;;;;;;;-1.49;70.78;96358.07;1705012;84;25705;-74
2022/11/19 02:29:30;;;;;;;34.75;24.37;;;;;;;-1.52;70.85;96341.68;1708502;84;25697;-72
2022/11/19 02:32:04;;;;;;;35.52;24.90;;;;;;;-1.52;70.93;96355.74;1705430;84;26001;-74
2022/11/19 02:34:48;;;;;;;35.90;24.52;;;;;;;-1.51;70.92;96359.22;1726386;83;25427;-70
2022/11/19 02:37:50;;;;;;;34.23;24.75;;;;;;;-1.50;70.95;96368.81;1720482;83;27387;-72
2022/11/19 02:40:25;;;;;;;35.15;24.63;;;;;;;-1.47;70.98;96367.18;1728237;83;25221;-72
2022/11/19 02:43:22;;;;;;;35.10;25.15;;;;;;;-1.45;71.01;96367.84;1720466;83;25458;-72
2022/11/19 02:45:57;;;;;;;37.35;26.02;;;;;;;-1.43;71.04;96376.43;1669157;85;25990;-73
2022/11/19 02:48:32;;;;;;;37.48;25.90;;;;;;;-1.42;71.06;96362.20;1671701;85;25821;-73
2022/11/19 02:51:02;;;;;;;39.40;27.55;;;;;;;-1.42;71.11;96364.85;1653645;86;28149;-72
2022/11/19 02:53:31;;;;;;;37.48;25.65;;;;;;;-1.45;71.32;96361.23;1653599;86;25794;-70
2022/11/19 02:56:10;;;;;;;39.50;26.40;;;;;;;-1.56;71.27;96352.25;1653707;86;26184;-71
2022/11/19 03:04:28;;;;;;;34.75;25.60;;;;;;;-1.63;71.74;96364.48;1583152;90;27550;-72
2022/11/19 03:07:11;;;;;;;39.63;27.07;;;;;;;-1.66;71.80;96360.33;1583395;90;25812;-71
2022/11/19 03:09:43;;;;;;;37.00;25.72;;;;;;;-1.63;71.87;96369.28;1588009;90;25795;-72
2022/11/19 03:12:44;;;;;;;40.70;26.30;;;;;;;-1.59;71.87;96383.02;1547836;92;26047;-72
2022/11/19 03:18:21;;;;;;;39.67;27.48;;;;;;;-1.53;71.95;96396.92;1547591;92;27523;-76
2022/11/19 03:20:55;;;;;;;43.45;28.35;;;;;;;-1.51;71.96;96389.16;1547547;92;25855;-72
2022/11/19 03:23:29;;;;;;;38.15;25.60;;;;;;;-1.51;71.94;96389.16;1522427;94;25903;-72
2022/11/19 03:26:09;;;;;;;34.73;24.95;;;;;;;-1.53;71.93;96386.33;1521924;94;26771;-73
2022/11/19 03:28:38;;;;;;;37.93;25.37;;;;;;;-1.58;72.00;96386.01;1521429;94;25357;-72
2022/11/19 03:31:06;;;;;;;35.75;25.40;;;;;;;-1.72;72.04;96384.80;1524654;94;27394;-71
2022/11/19 03:33:40;;;;;;;34.80;25.55;;;;;;;-1.89;72.07;96391.84;1524557;94;25838;-72
2022/11/19 03:36:31;;;;;;;37.30;25.12;;;;;;;-1.98;72.26;96383.54;1524687;94;25847;-71
2022/11/19 03:39:03;;;;;;;37.70;25.43;;;;;;;-1.98;72.48;96386.19;1524467;94;26787;-72
2022/11/19 03:41:33;;;;;;;35.98;28.20;;;;;;;-1.92;72.55;96385.53;1524456;94;25920;-72
2022/11/19 03:44:20;;;;;;;37.13;25.72;;;;;;;-1.87;72.68;96369.20;1524694;93;27423;-72
2022/11/19 03:46:51;;;;;;;35.65;25.02;;;;;;;-1.84;72.69;96368.39;1501684;94;25807;-72
2022/11/19 03:49:23;;;;;;;38.60;25.55;;;;;;;-1.77;72.72;96383.61;1491090;96;25742;-72
2022/11/19 03:51:55;;;;;;;36.33;26.35;;;;;;;-1.70;72.66;96392.58;1490817;96;26960;-71
2022/11/19 03:54:21;;;;;;;35.92;25.37;;;;;;;-1.66;72.64;96393.41;1490951;96;25860;-72
2022/11/19 03:56:49;;;;;;;35.08;25.17;;;;;;;-1.61;72.61;96396.91;1490721;96;27492;-72
2022/11/19 03:59:17;;;;;;;37.60;25.72;;;;;;;-1.62;72.68;96400.05;1512783;94;25857;-71
2022/11/19 04:01:46;;;;;;;34.58;25.00;;;;;;;-1.58;72.66;96409.83;1517581;94;25844;-75
2022/11/19 04:06:58;;;;;;;34.33;24.18;;;;;;;-1.74;72.39;96397.36;1521432;94;25398;-75
2022/11/19 04:09:25;;;;;;;32.58;23.40;;;;;;;-1.84;72.49;96406.75;1521673;94;27784;-74
2022/11/19 04:11:51;;;;;;;36.50;25.00;;;;;;;-1.93;72.61;96410.32;1521609;94;25861;-72
2022/11/19 04:14:18;;;;;;;35.80;24.25;;;;;;;-1.94;72.81;96415.30;1521593;94;25355;-72
2022/11/19 04:16:44;;;;;;;35.75;25.37;;;;;;;-1.89;72.99;96414.81;1534688;93;26161;-71
2022/11/19 04:19:11;;;;;;;35.03;25.23;;;;;;;-1.84;73.05;96412.04;1536715;89;25800;-71
2022/11/19 04:21:37;;;;;;;38.20;26.97;;;;;;;-1.83;73.08;96425.61;1609700;89;27327;-74
2022/11/19 04:24:07;;;;;;;35.45;24.20;;;;;;;-1.76;73.15;96438.18;1670434;84;25802;-71
2022/11/19 04:26:33;;;;;;;35.15;25.70;;;;;;;-1.72;73.09;96436.89;1694928;84;25732;-72
2022/11/19 04:29:00;;;;;;;36.73;25.32;;;;;;;-1.66;73.08;96433.59;1694693;84;25968;-72
2022/11/19 04:31:26;;;;;;;32.20;24.10;;;;;;;-1.62;72.94;96433.13;1694775;84;25760;-71
2022/11/19 04:33:53;;;;;;;32.48;23.87;;;;;;;-1.60;72.91;96438.27;1694681;84;28258;-71
2022/11/19 04:36:20;;;;;;;32.85;23.83;;;;;;;-1.57;72.91;96432.66;1694611;84;25783;-71
2022/11/19 04:38:46;;;;;;;34.63;24.77;;;;;;;-1.56;72.78;96432.47;1694689;84;25358;-72
2022/11/19 04:41:13;;;;;;;34.03;24.37;;;;;;;-1.58;72.88;96431.00;1694797;84;25983;-71
2022/11/19 04:43:40;;;;;;;36.33;24.30;;;;;;;-1.57;72.89;96435.30;1707685;83;25790;-73
2022/11/19 04:46:06;;;;;;;33.73;24.25;;;;;;;-1.57;72.89;96433.45;1737319;82;26986;-72
2022/11/19 04:48:33;;;;;;;37.15;25.40;;;;;;;-1.52;72.90;96440.92;1753366;81;25406;-72
2022/11/19 04:50:59;;;;;;;35.05;24.05;;;;;;;-1.50;72.98;96454.34;1737381;82;25692;-72
2022/11/19 04:53:26;;;;;;;32.60;23.05;;;;;;;-1.46;72.97;96451.72;1753960;81;26730;-71
2022/11/19 04:55:53;;;;;;;34.75;23.73;;;;;;;-1.44;72.92;96468.73;1744951;82;25823;-72
2022/11/19 04:58:19;;;;;;;32.15;23.45;;;;;;;-1.43;72.85;96469.08;1753830;81;27022;-72
2022/11/19 05:00:48;;;;;;;32.88;24.32;;;;;;;-1.41;72.80;96464.45;1737370;82;25522;-74
2022/11/19 05:03:14;;;;;;;34.27;24.25;;;;;;;-1.40;72.84;96466.12;1752713;81;25701;-72
2022/11/19 05:05:41;;;;;;;33.48;23.92;;;;;;;-1.39;72.79;96478.37;1736600;82;26090;-70
2022/11/19 05:08:07;;;;;;;32.83;22.95;;;;;;;-1.47;72.70;96477.02;1753046;81;25775;-72
2022/11/19 05:10:34;;;;;;;35.63;24.85;;;;;;;-1.53;72.72;96478.97;1736686;82;27982;-74
2022/11/19 05:13:01;;;;;;;33.48;24.75;;;;;;;-1.55;72.85;96488.88;1752706;81;43984;-72
2022/11/19 05:15:28;;;;;;;38.28;25.82;;;;;;;-1.55;72.94;96492.84;1736460;82;25911;-71
2022/11/19 05:17:54;;;;;;;42.83;32.75;;;;;;;-1.54;73.03;96507.74;1752986;81;25876;-72
2022/11/19 05:20:21;;;;;;;35.75;25.52;;;;;;;-1.54;72.98;96504.60;1736550;82;25222;-75
2022/11/19 05:22:47;;;;;;;29.67;23.00;;;;;;;-1.55;72.79;96517.98;1753062;81;27581;-72
2022/11/19 05:25:14;;;;;;;31.12;22.90;;;;;;;-1.57;72.72;96516.02;1736480;82;25773;-71
2022/11/19 05:27:41;;;;;;;33.20;23.67;;;;;;;-1.57;72.66;96509.41;1752924;81;25707;-73
2022/11/19 05:30:09;;;;;;;27.42;21.55;;;;;;;-1.57;72.56;96512.05;1736463;82;26032;-72
2022/11/19 05:32:36;;;;;;;25.17;19.48;;;;;;;-1.57;72.36;96526.08;1753064;81;25231;-71
2022/11/19 05:35:05;;;;;;;20.85;17.35;;;;;;;-1.58;72.22;96524.95;1736857;82;26996;-70
2022/11/19 05:37:32;;;;;;;23.70;18.60;;;;;;;-1.58;71.95;96523.13;1750149;81;25422;-71
2022/11/19 05:39:59;;;;;;;24.07;19.57;;;;;;;-1.61;71.89;96529.22;1731841;82;25933;-72
2022/11/19 05:42:25;;;;;;;23.55;19.15;;;;;;;-1.61;71.94;96534.52;1747412;82;26026;-71
2022/11/19 05:44:52;;;;;;;27.35;19.98;;;;;;;-1.60;71.89;96541.47;1747394;82;25656;-71
2022/11/19 05:47:18;;;;;;;26.02;19.95;;;;;;;-1.57;71.97;96540.64;1731683;82;27404;-72
2022/11/19 05:49:45;;;;;;;24.72;19.90;;;;;;;-1.59;71.85;96539.16;1747283;82;25702;-72
2022/11/19 05:52:11;;;;;;;25.45;20.32;;;;;;;-1.66;71.73;96544.73;1747441;82;25786;-71
2022/11/19 05:54:38;;;;;;;27.00;19.52;;;;;;;-1.70;71.86;96551.34;1731855;82;25972;-71
2022/11/19 05:57:05;;;;;;;24.65;19.10;;;;;;;-1.65;71.96;96554.33;1747452;82;25398;-73
2022/11/19 05:59:31;;;;;;;22.60;17.73;;;;;;;-1.66;71.50;96561.44;1747403;82;27392;-72
2022/11/19 06:01:58;;;;;;;24.52;18.48;;;;;;;-1.69;71.55;96563.59;1732119;82;25652;-72
2022/11/19 06:04:25;;;;;;;25.02;19.87;;;;;;;-1.67;71.50;96572.17;1746148;82;26753;-71
2022/11/19 06:06:51;;;;;;;25.62;18.98;;;;;;;-1.66;71.69;96569.86;1746402;82;26035;-72
2022/11/19 06:09:18;;;;;;;25.37;19.02;;;;;;;-1.66;71.47;96575.16;1726611;83;25756;-76
2022/11/19 06:11:48;;;;;;;23.95;18.92;;;;;;;-1.67;71.49;96579.62;1746178;82;28088;-72
2022/11/19 06:14:22;;;;;;;21.68;17.98;;;;;;;-1.63;71.47;96576.17;1726487;83;25671;-72
2022/11/19 06:16:50;;;;;;;25.45;18.67;;;;;;;-1.62;71.57;96589.75;1688930;84;25672;-71
2022/11/19 06:19:18;;;;;;;25.27;19.32;;;;;;;-1.63;71.45;96597.34;1707726;84;25992;-71
2022/11/19 06:21:45;;;;;;;24.57;18.95;;;;;;;-1.62;71.54;96600.33;1603653;89;25523;-72
2022/11/19 06:24:12;;;;;;;24.37;19.30;;;;;;;-1.59;71.50;96604.00;1625373;88;27406;-71
2022/11/19 06:26:41;;;;;;;25.82;18.90;;;;;;;-1.57;71.48;96604.68;1630989;87;25757;-71
2022/11/19 06:29:09;;;;;;;23.92;18.90;;;;;;;-1.61;71.31;96603.31;1631078;87;25351;-70
2022/11/19 06:31:36;;;;;;;22.13;17.67;;;;;;;-1.62;71.44;96605.13;1609313;87;26045;-72
2022/11/19 06:34:02;;;;;;;24.47;19.15;;;;;;;-1.58;71.32;96608.31;1631022;87;25912;-71
2022/11/19 06:36:29;;;;;;;23.67;18.15;;;;;;;-1.51;71.26;96614.13;1631043;87;27249;-71
2022/11/19 06:38:55;;;;;;;22.30;18.07;;;;;;;-1.49;71.00;96616.63;1631045;87;25856;-71
2022/11/19 06:41:22;;;;;;;22.67;18.10;;;;;;;-1.52;70.97;96616.94;1631225;87;25879;-71
2022/11/19 06:43:49;;;;;;;21.57;16.95;;;;;;;-1.52;70.86;96624.87;1630989;87;25670;-71
2022/11/19 06:46:15;;;;;;;21.75;17.60;;;;;;;-1.56;70.73;96624.34;1631182;87;25795;-72
2022/11/19 06:48:42;;;;;;;22.02;17.92;;;;;;;-1.57;70.78;96621.88;1630801;87;27460;-72
2022/11/19 06:51:09;;;;;;;22.55;18.32;;;;;;;-1.55;70.82;96629.98;1630993;87;25862;-71
2022/11/19 06:53:36;;;;;;;23.95;17.85;;;;;;;-1.56;70.74;96635.42;1631037;87;25828;-75
2022/11/19 06:56:05;;;;;;;23.75;17.87;;;;;;;-1.57;70.79;96643.86;1631085;87;26972;-73
2022/11/19 06:58:34;;;;;;;25.88;20.05;;;;;;;-1.57;70.75;96645.70;1631071;87;25841;-70
2022/11/19 07:01:01;;;;;;;37.90;27.20;;;;;;;-1.59;71.02;96646.34;1631129;87;27572;-72
2022/11/19 07:03:28;;;;;;;45.17;30.60;;;;;;;-1.62;70.96;96643.50;1631982;87;25808;-72
2022/11/19 07:05:58;;;;;;;48.87;32.42;;;;;;;-1.60;71.04;96650.80;1632654;87;25777;-71
2022/11/19 07:08:25;;;;;;;48.33;33.48;;;;;;;-1.58;71.09;96653.30;1632542;87;26145;-75
2022/11/19 07:10:52;;;;;;;43.83;30.55;;;;;;;-1.58;70.98;96656.78;1632458;87;25794;-72
2022/11/19 07:13:19;;;;;;;36.58;26.75;;;;;;;-1.57;70.96;96664.23;1643246;86;27408;-72
2022/11/19 07:15:45;;;;;;;33.02;25.40;;;;;;;-1.59;70.94;96672.31;1659247;86;25851;-71
2022/11/19 07:18:12;;;;;;;30.12;23.10;;;;;;;-1.59;71.01;96681.58;1683385;82;25800;-72
2022/11/19 07:20:40;;;;;;;29.10;21.75;;;;;;;-1.56;71.11;96685.22;1749792;81;26171;-72
2022/11/19 07:23:10;;;;;;;29.82;22.40;;;;;;;-1.55;71.18;96683.41;1734571;82;25754;-71
2022/11/19 07:25:37;;;;;;;28.62;22.82;;;;;;;-1.54;71.15;96684.58;1747342;82;27601;-72
2022/11/19 07:28:04;;;;;;;28.85;22.98;;;;;;;-1.52;71.13;96677.32;1734645;82;25750;-74
2022/11/19 07:30:30;;;;;;;31.23;24.15;;;;;;;-1.50;70.99;96685.94;1747749;82;25730;-71
2022/11/19 07:32:57;;;;;;;36.70;27.32;;;;;;;-1.50;71.06;96679.81;1747729;82;25691;-72
2022/11/19 07:35:24;;;;;;;39.80;29.20;;;;;;;-1.48;71.16;96687.12;1734863;82;25277;-72
2022/11/19 07:37:51;;;;;;;34.35;24.87;;;;;;;-1.48;71.23;96683.98;1747633;82;27381;-72
2022/11/19 07:40:17;;;;;;;32.95;25.00;;;;;;;-1.46;71.30;96678.53;1747680;82;25731;-72
2022/11/19 07:42:51;;;;;;;31.42;25.20;;;;;;;-1.44;71.22;96688.45;1717799;83;25739;-71
2022/11/19 07:45:21;;;;;;;29.32;23.77;;;;;;;-1.42;71.26;96689.13;1734747;82;26067;-72
2022/11/19 07:47:47;;;;;;;29.20;23.00;;;;;;;-1.40;71.19;96688.98;1726507;83;25462;-72
2022/11/19 07:50:14;;;;;;;27.95;21.23;;;;;;;-1.45;71.25;96684.97;1747816;82;27419;-75
2022/11/19 07:52:41;;;;;;;31.37;25.23;;;;;;;-1.43;71.24;96687.47;1747600;82;25702;-71
2022/11/19 07:55:09;;;;;;;31.45;23.60;;;;;;;-1.45;71.35;96682.84;1740317;82;25442;-71
2022/11/19 07:57:35;;;;;;;83.35;27.02;;;;;;;-1.44;71.43;96689.77;1747499;82;26025;-73
2022/11/19 08:00:05;;;;;;;33.83;24.00;;;;;;;-1.41;71.47;96692.12;1747706;82;25820;-71
2022/11/19 08:02:31;;;;;;;30.37;23.22;;;;;;;-1.36;71.47;96695.15;1746336;81;27442;-73
2022/11/19 08:04:58;;;;;;;34.63;24.55;;;;;;;-1.33;71.27;96697.49;1744307;82;25671;-70
2022/11/19 08:07:24;;;;;;;31.73;23.50;;;;;;;-1.29;71.33;96698.83;1744802;82;25728;-72
2022/11/19 08:09:51;;;;;;;34.80;23.47;;;;;;;-1.28;71.31;96692.55;1744668;82;25990;-71
2022/11/19 08:12:18;;;;;;;27.70;22.10;;;;;;;-1.24;71.30;96698.38;1744763;82;25676;-71
2022/11/19 08:14:44;;;;;;;34.95;25.45;;;;;;;-1.21;71.22;96693.57;1744692;82;27459;-71
2022/11/19 08:19:56;;;;;;;32.35;24.85;;;;;;;-1.14;71.30;96689.83;1744521;82;25702;-70
2022/11/19 08:22:23;;;;;;;27.75;23.12;;;;;;;-1.07;71.33;96693.98;1744645;82;25992;-71
2022/11/19 08:24:49;;;;;;;30.65;22.15;;;;;;;-1.03;71.36;96701.48;1744424;82;25708;-71
2022/11/19 08:27:17;;;;;;;28.95;22.50;;;;;;;-0.97;71.24;96704.01;1744756;82;27317;-70
2022/11/19 08:29:43;;;;;;;32.17;23.92;;;;;;;-0.91;71.24;96702.04;1744721;82;25684;-71
2022/11/19 08:32:10;;;;;;;30.45;22.10;;;;;;;-0.86;71.11;96702.41;1744716;82;25775;-71
2022/11/19 08:34:37;;;;;;;29.80;22.02;;;;;;;-0.84;71.03;96705.22;1744692;82;26738;-71
2022/11/19 08:37:03;;;;;;;33.92;24.12;;;;;;;-0.83;70.98;96704.72;1744737;82;25712;-72
2022/11/19 08:39:30;;;;;;;35.03;23.85;;;;;;;-0.82;71.11;96698.44;1744772;82;27371;-71
2022/11/19 08:44:42;;;;;;;29.85;22.55;;;;;;;-0.76;70.83;96700.47;1744323;82;25705;-70
2022/11/19 08:47:08;;;;;;;30.60;22.70;;;;;;;-0.76;70.74;96704.45;1753003;81;25985;-71
2022/11/19 08:49:35;;;;;;;29.98;23.05;;;;;;;-0.76;70.70;96701.80;1753078;81;25809;-71
2022/11/19 08:52:02;;;;;;;33.15;23.95;;;;;;;-0.81;70.66;96700.10;1753033;81;27365;-71
2022/11/19 08:54:28;;;;;;;29.87;23.27;;;;;;;-0.78;70.60;96694.49;1752939;81;25208;-75
2022/11/19 08:56:55;;;;;;;32.03;23.57;;;;;;;-0.75;70.32;96704.29;1753140;81;26561;-73
2022/11/19 08:59:22;;;;;;;31.73;23.22;;;;;;;-0.70;70.42;96707.77;1753256;81;26025;-71
2022/11/19 09:01:49;;;;;;;30.43;22.35;;;;;;;-0.65;70.12;96697.54;1752963;81;25787;-72
2022/11/19 09:04:16;;;;;;;28.50;19.48;;;;;;;-0.61;70.11;96706.84;1755400;81;27376;-71
2022/11/19 09:06:43;;;;;;;23.90;17.50;;;;;;;-0.56;69.85;96704.53;1755885;81;25598;-72
2022/11/19 09:09:10;;;;;;;20.52;15.65;;;;;;;-0.49;69.56;96716.17;1756192;81;26500;-74
2022/11/19 09:11:37;;;;;;;23.25;17.07;;;;;;;-0.44;69.34;96712.53;1756262;81;26022;-72
2022/11/19 09:14:03;;;;;;;20.02;15.63;;;;;;;-0.42;69.09;96717.19;1756034;81;25468;-74
2022/11/19 09:16:30;;;;;;;21.10;16.17;;;;;;;-0.48;68.85;96719.13;1756115;81;27361;-75
2022/11/19 09:18:57;;;;;;;21.68;16.75;;;;;;;-0.56;68.84;96723.09;1756020;81;25204;-72
2022/11/19 09:21:23;;;;;;;22.52;15.85;;;;;;;-0.56;68.54;96731.04;1756225;81;25401;-72
2022/11/19 09:23:50;;;;;;;23.38;16.40;;;;;;;-0.61;68.51;96728.05;1756191;81;26017;-73
2022/11/19 09:26:18;;;;;;;26.15;18.32;;;;;;;-0.62;68.44;96731.69;1756114;81;25735;-71
2022/11/19 09:28:45;;;;;;;25.82;16.67;;;;;;;-0.60;68.48;96740.28;1756156;81;28115;-73
2022/11/19 09:31:19;;;;;;;29.60;18.85;;;;;;;-0.54;68.52;96742.32;1756118;81;25717;-70
2022/11/19 09:33:50;;;;;;;26.05;18.05;;;;;;;-0.48;68.41;96743.48;1753435;81;25804;-72
2022/11/19 09:36:18;;;;;;;23.85;17.20;;;;;;;-0.42;68.31;96743.70;1737020;82;25998;-72
2022/11/19 09:38:45;;;;;;;20.05;14.85;;;;;;;-0.37;68.26;96735.28;1733836;82;25769;-72
2022/11/19 09:41:26;;;;;;;19.95;14.38;;;;;;;-0.34;68.06;96732.28;1749813;81;27558;-74
2022/11/19 09:44:04;;;;;;;20.45;14.85;;;;;;;-0.37;67.44;96730.81;1686716;83;25917;-71
2022/11/19 09:46:45;;;;;;;20.37;15.03;;;;;;;-0.47;67.16;96738.03;1694211;83;25797;-72
2022/11/19 09:49:16;;;;;;;23.40;16.87;;;;;;;-0.49;67.33;96742.69;1713436;83;26789;-73
2022/11/19 09:51:48;;;;;;;20.72;13.98;;;;;;;-0.52;66.98;96741.67;1707232;83;25269;-71
2022/11/19 09:54:18;;;;;;;20.72;15.15;;;;;;;-0.65;66.32;96744.42;1710246;83;28199;-72
2022/11/19 09:56:48;;;;;;;20.10;14.10;;;;;;;-0.74;66.57;96744.39;1713155;83;25741;-72
2022/11/19 09:59:35;;;;;;;16.65;12.80;;;;;;;-0.68;66.87;96738.09;1713263;83;25740;-72
2022/11/19 10:02:18;;;;;;;15.58;13.10;;;;;;;-0.66;66.25;96735.63;1713165;83;26900;-75
2022/11/19 10:04:46;;;;;;;16.50;13.98;;;;;;;-0.67;66.43;96736.63;1714805;83;25834;-73
2022/11/19 10:08:09;;;;;;;21.23;15.65;;;;;;;-0.61;66.30;96745.28;1715986;83;27625;-71
2022/11/19 10:10:50;;;;;;;27.17;19.48;;;;;;;-0.57;66.19;96746.61;1716145;83;25574;-73
2022/11/19 10:13:31;;;;;;;26.82;19.27;;;;;;;-0.49;66.71;96745.34;1658296;86;25307;-72
2022/11/19 10:16:03;;;;;;;26.80;20.15;;;;;;;-0.43;66.75;96747.34;1660434;86;25999;-72
2022/11/19 10:18:50;;;;;;;26.65;19.67;;;;;;;-0.54;66.90;96750.27;1631736;87;25868;-75
2022/11/19 10:21:37;;;;;;;23.45;18.17;;;;;;;-0.51;67.15;96749.97;1622735;87;27466;-72
2022/11/19 10:27:00;;;;;;;27.95;18.55;;;;;;;-0.46;67.01;96756.09;1598364;89;25775;-72
2022/11/19 10:29:33;;;;;;;34.40;19.48;;;;;;;-0.51;67.06;96753.94;1597837;89;26647;-74
2022/11/19 10:32:29;;;;;;;31.07;22.40;;;;;;;-0.49;66.84;96753.30;1598600;89;25323;-72
2022/11/19 10:35:01;;;;;;;30.25;20.48;;;;;;;-0.49;67.11;96758.59;1549321;92;27493;-72
2022/11/19 10:37:38;;;;;;;27.07;20.08;;;;;;;-0.50;67.25;96753.45;1549254;92;25835;-72
2022/11/19 10:40:18;;;;;;;26.75;19.17;;;;;;;-0.48;67.30;96765.53;1526832;93;25381;-72
2022/11/19 10:42:49;;;;;;;24.67;18.57;;;;;;;-0.46;67.20;96763.56;1532416;93;26007;-72
2022/11/19 10:45:26;;;;;;;24.60;17.90;;;;;;;-0.43;67.17;96759.27;1532544;93;25804;-72
2022/11/19 10:48:10;;;;;;;21.93;16.07;;;;;;;-0.39;67.10;96754.49;1532423;93;27426;-74
2022/11/19 10:50:37;;;;;;;21.07;16.48;;;;;;;-0.47;66.61;96754.44;1531836;93;26016;-71
2022/11/19 10:53:14;;;;;;;19.65;15.40;;;;;;;-0.58;66.55;96749.41;1532213;93;25335;-71
2022/11/19 10:55:51;;;;;;;22.00;16.45;;;;;;;-0.70;66.56;96748.85;1463603;98;26640;-74
2022/11/19 10:58:26;;;;;;;27.98;18.12;;;;;;;-0.78;66.96;96743.52;1383501;102;25935;-71
2022/11/19 11:00:55;;;;;;;21.25;15.90;;;;;;;-0.80;67.07;96738.86;1423451;100;27449;-72
2022/11/19 11:03:27;;;;;;;27.70;18.92;;;;;;;-0.78;67.02;96735.08;1423233;100;25909;-73
2022/11/19 11:06:00;;;;;;;28.05;19.25;;;;;;;-0.76;66.89;96736.25;1460407;98;26959;-72
2022/11/19 11:08:27;;;;;;;23.05;16.60;;;;;;;-0.74;67.15;96732.95;1443191;99;26049;-71
2022/11/19 11:10:55;;;;;;;20.72;15.55;;;;;;;-0.74;66.70;96739.58;1419587;99;25800;-71
2022/11/19 11:16:44;;;;;;;23.55;15.20;;;;;;;-0.74;66.07;96750.18;1454922;98;25633;-71
2022/11/19 11:19:18;;;;;;;20.48;15.40;;;;;;;-0.90;65.84;96740.80;1461756;98;25929;-75
2022/11/19 11:21:46;;;;;;;20.72;15.58;;;;;;;-0.92;66.10;96748.06;1463787;98;25894;-71
2022/11/19 11:24:13;;;;;;;22.98;17.00;;;;;;;-0.96;66.18;96751.51;1446221;98;25525;-71
2022/11/19 11:26:40;;;;;;;20.48;15.43;;;;;;;-0.90;66.49;96748.74;1463882;98;27645;-72
2022/11/19 11:29:17;;;;;;;21.90;16.77;;;;;;;-0.80;66.29;96746.81;1463538;98;25649;-72
2022/11/19 11:31:46;;;;;;;24.65;17.67;;;;;;;-0.70;66.08;96744.88;1455050;98;25843;-72
2022/11/19 11:34:36;;;;;;;22.45;16.12;;;;;;;-0.66;65.88;96751.54;1524559;93;26647;-72
2022/11/19 11:37:05;;;;;;;24.40;17.20;;;;;;;-0.62;65.92;96754.71;1564608;90;25828;-72
2022/11/19 11:39:35;;;;;;;25.08;16.57;;;;;;;-0.66;65.87;96757.33;1580555;90;27413;-72
2022/11/19 11:42:03;;;;;;;20.55;14.23;;;;;;;-0.61;65.98;96755.88;1580257;90;25709;-75
2022/11/19 11:44:34;;;;;;;20.17;14.83;;;;;;;-0.55;65.81;96749.94;1580396;90;26027;-71
2022/11/19 11:47:17;;;;;;;18.73;14.58;;;;;;;-0.53;65.59;96746.64;1580365;90;26005;-72
2022/11/19 11:49:48;;;;;;;22.22;15.08;;;;;;;-0.49;65.73;96747.98;1580539;90;25832;-71
2022/11/19 11:52:35;;;;;;;20.95;15.20;;;;;;;-0.34;65.67;96746.87;1580372;90;27585;-74
2022/11/19 11:55:13;;;;;;;19.57;14.95;;;;;;;-0.28;65.33;96750.72;1600272;87;25501;-74
2022/11/19 11:57:56;;;;;;;23.07;15.45;;;;;;;-0.21;65.61;96756.53;1627735;87;25639;-72
2022/11/19 12:00:41;;;;;;;23.57;17.15;;;;;;;-0.11;65.69;96757.73;1631469;87;26829;-75